Time;durP1;ratioP1;P1;durP2;ratioP2;P2;SDS_P1;SDS_P2;PMS_P1;PMS_P2;Temp;Humidity;BMP_temperature;BMP_pressure;BME280_temperature;BME280_humidity;BME280_pressure;Samples;Min_cycle;Max_cycle;Signal;HPM_P1;HPM_P2
2023/05/17 00:00:26;;;;;;;17.50;3.13;;;10.00;99.90;;;;;;5025171;28;20446;-76
2023/05/17 00:02:52;;;;;;;16.35;3.60;;;10.00;99.90;;;;;;5027541;28;20712;-75
2023/05/17 00:05:17;;;;;;;13.43;2.33;;;10.00;99.90;;;;;;5029000;28;20499;-76
2023/05/17 00:07:43;;;;;;;16.90;3.28;;;10.00;99.90;;;;;;5028310;28;20082;-75
2023/05/17 00:10:10;;;;;;;16.77;3.25;;;10.00;99.90;;;;;;5025807;28;20575;-76
2023/05/17 00:12:36;;;;;;;17.88;3.22;;;9.90;99.90;;;;;;5013638;28;20136;-75
2023/05/17 00:15:01;;;;;;;16.98;3.70;;;9.90;99.90;;;;;;5025277;28;20037;-75
2023/05/17 00:17:27;;;;;;;19.38;3.60;;;9.90;99.90;;;;;;5025646;28;20395;-78
2023/05/17 00:19:53;;;;;;;16.10;3.45;;;9.90;99.90;;;;;;5028385;28;20040;-76
2023/05/17 00:22:19;;;;;;;15.00;3.53;;;9.90;99.90;;;;;;5025868;28;20048;-76
2023/05/17 00:24:45;;;;;;;18.83;4.07;;;9.90;99.90;;;;;;5031347;28;20045;-74
2023/05/17 00:27:10;;;;;;;17.63;3.15;;;9.90;99.90;;;;;;5015064;28;20045;-75
2023/05/17 00:29:37;;;;;;;16.77;2.92;;;9.90;99.90;;;;;;5014193;28;20071;-76
2023/05/17 00:32:03;;;;;;;14.15;2.85;;;9.90;99.90;;;;;;5026851;28;20080;-74
2023/05/17 00:34:29;;;;;;;16.00;3.10;;;9.90;99.90;;;;;;5015589;28;20156;-75
2023/05/17 00:36:55;;;;;;;14.90;3.08;;;9.90;99.90;;;;;;5015775;28;20415;-75
2023/05/17 00:39:20;;;;;;;12.55;2.67;;;9.90;99.90;;;;;;5014167;28;20480;-77
2023/05/17 00:41:46;;;;;;;15.07;3.30;;;10.00;99.90;;;;;;5024067;28;20061;-78
2023/05/17 00:44:13;;;;;;;15.50;2.72;;;10.00;99.90;;;;;;5014835;28;20381;-76
2023/05/17 00:46:38;;;;;;;14.35;2.75;;;9.90;99.90;;;;;;5033691;28;20049;-76
2023/05/17 00:49:04;;;;;;;14.10;3.13;;;9.90;99.90;;;;;;5001200;28;20084;-75
2023/05/17 00:51:31;;;;;;;17.08;3.22;;;9.90;99.90;;;;;;5013584;28;20136;-76
2023/05/17 00:53:57;;;;;;;15.93;2.75;;;9.80;99.90;;;;;;5016910;28;20421;-76
2023/05/17 00:56:24;;;;;;;14.85;3.13;;;9.80;99.90;;;;;;5034563;28;20045;-76
2023/05/17 00:58:50;;;;;;;10.82;2.30;;;9.80;99.90;;;;;;5014636;28;20041;-76
2023/05/17 01:01:15;;;;;;;12.48;2.88;;;9.70;99.90;;;;;;5029077;28;20045;-76
2023/05/17 01:03:41;;;;;;;12.98;2.55;;;9.70;99.90;;;;;;5025547;28;20045;-76
2023/05/17 01:06:07;;;;;;;11.00;2.53;;;9.70;99.90;;;;;;5014250;28;20049;-77
2023/05/17 01:08:33;;;;;;;13.23;2.50;;;9.70;99.90;;;;;;5014558;28;20089;-77
2023/05/17 01:11:50;;;;;;;16.02;2.88;;;9.60;99.90;;;;;;5014574;28;20056;-77
2023/05/17 01:14:43;;;;;;;15.57;2.40;;;9.60;99.90;;;;;;4996128;28;20061;-76
2023/05/17 01:17:31;;;;;;;15.63;2.97;;;9.60;99.90;;;;;;5038295;28;20472;-77
2023/05/17 01:20:17;;;;;;;16.85;3.33;;;9.60;99.90;;;;;;5033331;28;20269;-78
2023/05/17 01:22:48;;;;;;;16.58;2.70;;;9.60;99.90;;;;;;5034636;28;20404;-77
2023/05/17 01:25:35;;;;;;;18.83;3.90;;;9.60;99.90;;;;;;5017813;28;20132;-77
2023/05/17 01:28:03;;;;;;;18.83;3.20;;;9.60;99.90;;;;;;5028566;28;20057;-75
2023/05/17 01:30:33;;;;;;;19.85;3.65;;;9.60;99.90;;;;;;5013580;28;20040;-75
2023/05/17 01:33:01;;;;;;;10.63;2.80;;;9.60;99.90;;;;;;5034856;28;20056;-76
2023/05/17 01:35:27;;;;;;;15.13;2.78;;;9.60;99.90;;;;;;5030279;28;20538;-78
2023/05/17 01:37:53;;;;;;;14.10;2.83;;;9.60;99.90;;;;;;5019996;28;20076;-76
2023/05/17 01:40:19;;;;;;;12.10;2.40;;;9.60;99.90;;;;;;5031334;28;20107;-77
2023/05/17 01:42:53;;;;;;;14.90;3.60;;;9.60;99.90;;;;;;5030934;28;20050;-76
2023/05/17 01:45:25;;;;;;;18.30;3.00;;;9.60;99.90;;;;;;5038186;28;20049;-76
2023/05/17 01:48:20;;;;;;;16.55;2.78;;;9.70;99.90;;;;;;5051554;28;20060;-77
2023/05/17 01:50:51;;;;;;;14.48;2.88;;;9.70;99.90;;;;;;5028494;28;20057;-78
2023/05/17 01:53:36;;;;;;;12.10;2.55;;;9.50;99.90;;;;;;5025932;28;20106;-78
2023/05/17 01:56:35;;;;;;;10.02;2.22;;;9.70;99.90;;;;;;5030859;28;20488;-77
2023/05/17 01:59:05;;;;;;;10.68;2.15;;;9.70;99.90;;;;;;4965249;28;20138;-78
2023/05/17 02:01:31;;;;;;;12.10;2.22;;;9.60;99.90;;;;;;5027551;28;20083;-77
2023/05/17 02:03:57;;;;;;;12.38;2.40;;;9.60;99.90;;;;;;5036255;28;20588;-78
2023/05/17 02:06:23;;;;;;;12.85;2.92;;;9.50;99.90;;;;;;5028678;28;20052;-77
2023/05/17 02:08:49;;;;;;;11.85;2.72;;;9.60;99.90;;;;;;5017200;28;20041;-77
2023/05/17 02:11:15;;;;;;;13.23;2.70;;;9.50;99.90;;;;;;5017656;28;20040;-78
2023/05/17 02:13:40;;;;;;;9.30;2.08;;;9.40;99.90;;;;;;5028952;28;20052;-77
2023/05/17 02:16:06;;;;;;;12.57;2.33;;;9.40;99.90;;;;;;5012577;28;20055;-77
2023/05/17 02:18:34;;;;;;;11.73;2.55;;;9.40;99.90;;;;;;5020484;28;20056;-78
2023/05/17 02:21:00;;;;;;;12.52;2.15;;;9.30;99.90;;;;;;4995902;28;20061;-77
2023/05/17 02:23:26;;;;;;;8.52;1.77;;;9.30;99.90;;;;;;5028765;28;21012;-76
2023/05/17 02:25:51;;;;;;;8.80;2.30;;;9.30;99.90;;;;;;5032408;28;20799;-77
2023/05/17 02:28:17;;;;;;;10.45;1.88;;;9.30;99.90;;;;;;5030200;28;20363;-77
2023/05/17 02:30:44;;;;;;;10.73;2.65;;;9.30;99.90;;;;;;5034361;28;20045;-76
2023/05/17 02:33:11;;;;;;;8.32;2.55;;;9.30;99.90;;;;;;5030053;28;20056;-77
2023/05/17 02:35:36;;;;;;;11.07;2.00;;;9.30;99.90;;;;;;5020693;28;20350;-77
2023/05/17 02:38:02;;;;;;;11.35;2.42;;;9.30;99.90;;;;;;5034132;28;20046;-77
2023/05/17 02:40:30;;;;;;;5.85;1.88;;;9.30;99.90;;;;;;5037067;28;20040;-76
2023/05/17 02:42:56;;;;;;;8.00;2.20;;;9.30;99.90;;;;;;5031612;28;20132;-76
2023/05/17 02:45:22;;;;;;;7.05;2.13;;;9.30;99.90;;;;;;5020398;28;20655;-76
2023/05/17 02:47:48;;;;;;;11.45;2.30;;;9.30;99.90;;;;;;5019139;28;20059;-77
2023/05/17 02:50:17;;;;;;;15.38;2.10;;;9.30;99.90;;;;;;5037671;28;20053;-76
2023/05/17 02:52:43;;;;;;;9.63;1.63;;;9.30;99.90;;;;;;5019226;28;20045;-75
2023/05/17 02:55:09;;;;;;;11.00;2.03;;;9.20;99.90;;;;;;5014554;28;20152;-75
2023/05/17 02:57:34;;;;;;;4.85;1.95;;;9.10;99.90;;;;;;5028908;28;20049;-76
2023/05/17 03:00:00;;;;;;;12.73;1.98;;;9.20;99.90;;;;;;5019224;28;20045;-75
2023/05/17 03:02:26;;;;;;;10.70;2.30;;;9.20;99.90;;;;;;5024235;28;20064;-77
2023/05/17 03:04:52;;;;;;;11.32;2.03;;;9.20;99.90;;;;;;5028638;28;20041;-75
2023/05/17 03:07:18;;;;;;;9.60;1.88;;;9.20;99.90;;;;;;5035489;28;20046;-74
2023/05/17 03:09:44;;;;;;;9.43;2.03;;;9.20;99.90;;;;;;5017308;28;20044;-75
2023/05/17 03:12:10;;;;;;;10.07;2.17;;;9.20;99.90;;;;;;5032508;28;20446;-75
2023/05/17 03:14:36;;;;;;;9.98;2.13;;;8.90;99.90;;;;;;5032759;28;20044;-76
2023/05/17 03:17:02;;;;;;;9.90;1.67;;;9.20;99.90;;;;;;5003175;28;20183;-76
2023/05/17 03:19:28;;;;;;;12.82;2.40;;;9.30;99.90;;;;;;5035623;28;20686;-76
2023/05/17 03:21:55;;;;;;;7.82;1.80;;;9.30;99.90;;;;;;5029081;28;20060;-75
2023/05/17 03:24:21;;;;;;;12.68;2.25;;;9.30;99.90;;;;;;5031244;28;20045;-76
2023/05/17 03:26:47;;;;;;;8.73;2.10;;;9.30;99.90;;;;;;5019573;28;20057;-76
2023/05/17 03:29:14;;;;;;;10.90;2.03;;;9.30;99.90;;;;;;5016111;28;20045;-75
2023/05/17 03:31:44;;;;;;;9.55;2.38;;;9.30;99.90;;;;;;5016316;28;20044;-77
2023/05/17 03:34:16;;;;;;;8.80;1.80;;;9.40;99.90;;;;;;5031438;28;20079;-76
2023/05/17 03:36:42;;;;;;;11.15;1.88;;;9.30;99.90;;;;;;5016747;28;20159;-76
2023/05/17 03:39:09;;;;;;;8.30;2.05;;;9.30;99.90;;;;;;5028873;28;20051;-76
2023/05/17 03:41:35;;;;;;;13.75;2.58;;;9.30;99.90;;;;;;5017879;28;20051;-76
2023/05/17 03:44:00;;;;;;;12.82;2.35;;;9.30;99.90;;;;;;5031597;28;20037;-75
2023/05/17 03:46:29;;;;;;;7.97;1.83;;;9.30;99.90;;;;;;5033955;28;20049;-75
2023/05/17 03:48:58;;;;;;;7.88;1.50;;;9.30;99.90;;;;;;5034432;28;20045;-77
2023/05/17 03:51:26;;;;;;;7.95;2.20;;;9.30;99.90;;;;;;5031438;28;20041;-77
2023/05/17 03:53:57;;;;;;;9.82;2.05;;;9.30;99.90;;;;;;5027119;28;20538;-77
2023/05/17 03:56:23;;;;;;;7.07;2.03;;;9.30;99.90;;;;;;5026723;28;20076;-76
2023/05/17 03:58:49;;;;;;;11.77;2.08;;;9.30;99.90;;;;;;5018272;28;20484;-76
2023/05/17 04:01:15;;;;;;;8.30;2.22;;;9.20;99.90;;;;;;5018740;28;20068;-76
2023/05/17 04:03:40;;;;;;;6.07;1.70;;;9.20;99.90;;;;;;5026400;28;20434;-75
2023/05/17 04:06:07;;;;;;;8.02;2.08;;;9.10;99.90;;;;;;5022362;28;21092;-76
2023/05/17 04:08:34;;;;;;;10.65;1.98;;;9.10;99.90;;;;;;5022021;28;20065;-77
2023/05/17 04:11:08;;;;;;;9.65;1.60;;;9.10;99.90;;;;;;5036799;28;20622;-76
2023/05/17 04:13:38;;;;;;;8.77;1.98;;;9.10;99.90;;;;;;5009407;28;20071;-77
2023/05/17 04:16:05;;;;;;;7.15;1.73;;;9.10;99.90;;;;;;5028909;28;20053;-77
2023/05/17 04:18:35;;;;;;;6.32;1.70;;;9.10;99.90;;;;;;5025944;28;20186;-78
2023/05/17 04:21:02;;;;;;;10.05;2.05;;;9.10;99.90;;;;;;5015949;28;20045;-76
2023/05/17 04:23:28;;;;;;;8.65;1.95;;;9.20;99.90;;;;;;5018672;28;20172;-76
2023/05/17 04:25:55;;;;;;;7.13;1.60;;;9.20;99.90;;;;;;5013890;28;20052;-76
2023/05/17 04:28:27;;;;;;;6.38;1.77;;;9.20;99.90;;;;;;5015815;28;20102;-77
2023/05/17 04:30:53;;;;;;;9.20;1.70;;;9.20;99.90;;;;;;5026073;28;20045;-76
2023/05/17 04:33:23;;;;;;;11.82;1.60;;;9.20;99.90;;;;;;5034145;28;20058;-75
2023/05/17 04:35:53;;;;;;;4.88;1.77;;;9.20;99.90;;;;;;5014235;28;20056;-75
2023/05/17 04:38:19;;;;;;;6.43;1.73;;;9.20;99.90;;;;;;5016171;28;20712;-77
2023/05/17 04:40:45;;;;;;;9.23;1.90;;;9.20;99.90;;;;;;5031287;28;20041;-76
2023/05/17 04:43:17;;;;;;;12.80;1.88;;;9.20;99.90;;;;;;5017541;28;20079;-77
2023/05/17 04:45:44;;;;;;;7.45;1.42;;;9.20;99.90;;;;;;4997675;28;20772;-76
2023/05/17 04:48:12;;;;;;;6.00;1.50;;;9.20;99.90;;;;;;5032143;28;20080;-76
2023/05/17 04:50:39;;;;;;;7.97;1.80;;;9.30;99.90;;;;;;5034027;28;20053;-78
2023/05/17 04:53:05;;;;;;;10.88;2.17;;;9.20;99.90;;;;;;5029338;28;20479;-76
2023/05/17 04:55:31;;;;;;;8.65;1.85;;;9.20;99.90;;;;;;5034649;28;20586;-76
2023/05/17 04:57:59;;;;;;;8.95;1.58;;;9.20;99.90;;;;;;5020236;28;20477;-78
2023/05/17 05:00:25;;;;;;;7.30;1.63;;;9.20;99.90;;;;;;5017734;28;20075;-76
2023/05/17 05:02:51;;;;;;;9.55;2.08;;;9.20;99.90;;;;;;5027324;28;20060;-78
2023/05/17 05:05:19;;;;;;;10.18;1.77;;;9.60;99.90;;;;;;5015961;28;20041;-77
2023/05/17 05:07:48;;;;;;;8.63;1.52;;;9.30;99.90;;;;;;5030743;28;20038;-76
2023/05/17 05:10:14;;;;;;;7.72;1.77;;;9.40;99.90;;;;;;5030042;28;21069;-76
2023/05/17 05:12:40;;;;;;;8.85;1.65;;;9.40;99.90;;;;;;5027373;28;20131;-76
2023/05/17 05:15:07;;;;;;;7.95;1.73;;;9.50;99.90;;;;;;5026782;28;20036;-76
2023/05/17 05:17:33;;;;;;;8.88;1.85;;;9.50;99.90;;;;;;5013243;28;20044;-76
2023/05/17 05:19:58;;;;;;;8.15;1.70;;;9.40;99.90;;;;;;5033042;28;20444;-76
2023/05/17 05:22:24;;;;;;;8.23;1.65;;;9.40;99.90;;;;;;5016702;28;20037;-76
2023/05/17 05:24:51;;;;;;;7.80;1.50;;;9.50;99.90;;;;;;5026492;28;20044;-77
2023/05/17 05:27:18;;;;;;;12.82;1.60;;;9.50;99.90;;;;;;5032722;28;20399;-76
2023/05/17 05:29:45;;;;;;;5.85;1.30;;;9.60;99.90;;;;;;5015267;28;20049;-76
2023/05/17 05:32:11;;;;;;;8.00;1.60;;;9.60;99.90;;;;;;5032294;28;20037;-76
2023/05/17 05:34:38;;;;;;;4.85;1.52;;;9.70;99.90;;;;;;5027400;28;20087;-77
2023/05/17 05:37:04;;;;;;;12.80;2.15;;;9.80;99.90;;;;;;5018208;28;20951;-77
2023/05/17 05:39:29;;;;;;;6.22;1.90;;;9.80;99.90;;;;;;5032813;28;20041;-77
2023/05/17 05:41:55;;;;;;;7.15;1.45;;;9.00;99.90;;;;;;5020314;28;20064;-77
2023/05/17 05:44:21;;;;;;;7.13;1.42;;;9.90;99.90;;;;;;5027950;28;20052;-76
2023/05/17 05:46:48;;;;;;;10.63;1.40;;;9.90;99.90;;;;;;5013838;28;20078;-75
2023/05/17 05:49:20;;;;;;;6.45;1.88;;;9.90;99.90;;;;;;5028824;28;20095;-78
2023/05/17 05:51:46;;;;;;;7.47;1.58;;;10.00;99.90;;;;;;5015090;28;20480;-75
2023/05/17 05:54:12;;;;;;;10.90;1.77;;;10.00;99.90;;;;;;5030163;28;20065;-74
2023/05/17 05:56:43;;;;;;;5.32;2.00;;;10.00;99.90;;;;;;5029367;28;20045;-75
2023/05/17 05:59:10;;;;;;;9.35;2.05;;;10.10;99.90;;;;;;5026899;28;20056;-75
2023/05/17 06:01:37;;;;;;;13.70;3.13;;;10.30;99.90;;;;;;5016656;28;20076;-74
2023/05/17 06:04:07;;;;;;;9.52;1.83;;;10.30;99.90;;;;;;5047378;28;20845;-74
2023/05/17 06:06:34;;;;;;;6.68;1.80;;;10.40;99.90;;;;;;5022831;28;20057;-75
2023/05/17 06:09:00;;;;;;;9.88;1.90;;;10.60;99.90;;;;;;5019569;28;20103;-76
2023/05/17 06:11:26;;;;;;;9.73;1.80;;;12.20;99.90;;;;;;5024288;28;20053;-77
2023/05/17 06:13:59;;;;;;;10.02;1.80;;;10.90;99.90;;;;;;5015358;28;20665;-77
2023/05/17 06:16:25;;;;;;;9.15;1.95;;;11.10;99.90;;;;;;5027996;28;20407;-77
2023/05/17 06:18:57;;;;;;;6.80;1.83;;;11.20;99.90;;;;;;5038948;28;20060;-75
2023/05/17 06:21:22;;;;;;;12.90;2.30;;;11.20;99.90;;;;;;5032655;28;20091;-75
2023/05/17 06:23:48;;;;;;;12.75;2.63;;;11.20;99.90;;;;;;5014043;28;20069;-76
2023/05/17 06:26:14;;;;;;;13.23;2.40;;;11.10;99.90;;;;;;5031822;28;20450;-74
2023/05/17 06:28:41;;;;;;;12.02;2.42;;;11.00;99.90;;;;;;5018314;28;20106;-75
2023/05/17 06:31:07;;;;;;;13.32;2.35;;;11.00;99.90;;;;;;5033051;28;20398;-76
2023/05/17 06:33:37;;;;;;;12.73;2.03;;;11.10;99.90;;;;;;4914687;28;3492326;-75
2023/05/17 06:36:03;;;;;;;12.27;2.20;;;11.10;99.90;;;;;;5033535;28;20114;-76
2023/05/17 06:38:32;;;;;;;11.38;2.22;;;11.10;99.90;;;;;;5038064;28;20162;-77
2023/05/17 06:40:58;;;;;;;13.30;2.67;;;11.20;99.90;;;;;;5024626;28;20088;-75
2023/05/17 06:43:25;;;;;;;12.18;2.10;;;11.20;99.90;;;;;;5033552;28;20519;-75
2023/05/17 06:45:53;;;;;;;10.70;2.53;;;11.20;99.90;;;;;;5037741;28;20071;-76
2023/05/17 06:48:23;;;;;;;13.15;3.17;;;11.20;99.90;;;;;;5060080;28;20136;-77
2023/05/17 06:50:50;;;;;;;18.25;2.35;;;11.20;99.90;;;;;;5045185;28;20110;-74
2023/05/17 06:53:22;;;;;;;9.73;1.77;;;11.20;99.90;;;;;;5014861;28;20052;-75
2023/05/17 06:55:47;;;;;;;9.05;1.83;;;11.30;99.90;;;;;;5025154;28;20044;-77
2023/05/17 06:58:19;;;;;;;8.85;2.03;;;11.20;99.90;;;;;;5034722;28;20049;-76
2023/05/17 07:00:46;;;;;;;11.10;2.53;;;11.20;99.90;;;;;;5030009;28;20128;-75
2023/05/17 07:03:24;;;;;;;12.30;2.17;;;11.30;99.90;;;;;;5038362;28;20052;-75
2023/05/17 07:05:59;;;;;;;11.48;2.25;;;11.20;99.90;;;;;;5032942;28;20060;-75
2023/05/17 07:08:30;;;;;;;8.00;2.40;;;11.20;99.90;;;;;;5040238;28;20055;-76
2023/05/17 07:10:56;;;;;;;12.98;2.85;;;11.30;99.90;;;;;;5018732;28;20420;-73
2023/05/17 07:13:23;;;;;;;10.32;2.45;;;11.40;99.90;;;;;;5020019;28;20049;-75
2023/05/17 07:15:50;;;;;;;11.63;2.17;;;11.40;99.90;;;;;;5023037;28;20049;-76
2023/05/17 07:18:16;;;;;;;10.98;2.85;;;11.40;99.90;;;;;;5034308;28;20168;-76
2023/05/17 07:20:42;;;;;;;15.45;3.08;;;11.40;99.90;;;;;;5016771;28;20124;-75
2023/05/17 07:23:08;;;;;;;11.95;2.47;;;11.50;99.90;;;;;;5020612;28;20492;-77
2023/05/17 07:25:37;;;;;;;10.93;2.15;;;11.60;99.90;;;;;;5022490;28;20057;-76
2023/05/17 07:28:04;;;;;;;10.57;2.30;;;11.70;99.90;;;;;;5038117;28;20132;-76
2023/05/17 07:30:30;;;;;;;10.80;2.85;;;11.90;99.90;;;;;;5030698;28;20476;-75
2023/05/17 07:32:56;;;;;;;13.80;2.60;;;12.10;99.90;;;;;;5036286;28;20124;-76
2023/05/17 07:35:27;;;;;;;13.05;2.50;;;12.30;99.90;;;;;;5040233;28;20587;-76
2023/05/17 07:37:53;;;;;;;9.45;2.40;;;12.40;99.90;;;;;;5027802;28;20057;-75
2023/05/17 07:40:19;;;;;;;10.00;2.40;;;12.50;99.90;;;;;;5034154;28;20045;-75
2023/05/17 07:42:45;;;;;;;10.27;2.60;;;12.50;99.90;;;;;;5025327;28;20046;-74
2023/05/17 07:45:10;;;;;;;9.48;2.63;;;12.60;99.90;;;;;;5024859;28;20121;-75
2023/05/17 07:47:36;;;;;;;17.13;2.85;;;12.70;99.90;;;;;;5031742;28;20065;-74
2023/05/17 07:50:03;;;;;;;15.05;2.50;;;12.80;99.90;;;;;;5043002;28;20053;-74
2023/05/17 07:52:28;;;;;;;10.23;2.42;;;12.90;99.90;;;;;;5034766;28;20076;-75
2023/05/17 07:55:00;;;;;;;12.50;2.20;;;12.90;99.90;;;;;;5043898;28;20059;-76
2023/05/17 07:57:26;;;;;;;11.90;2.03;;;12.80;99.90;;;;;;5023773;28;20399;-76
2023/05/17 07:59:52;;;;;;;13.32;2.58;;;12.70;99.90;;;;;;5034261;28;20041;-77
2023/05/17 08:02:17;;;;;;;13.05;2.53;;;12.80;99.90;;;;;;5020997;28;20080;-76
2023/05/17 08:04:44;;;;;;;8.25;2.25;;;12.80;99.90;;;;;;5007918;28;20059;-75
2023/05/17 08:07:10;;;;;;;7.72;1.60;;;12.90;99.90;;;;;;5022183;28;20409;-77
2023/05/17 08:09:39;;;;;;;8.32;2.00;;;13.20;99.90;;;;;;5030825;28;20534;-74
2023/05/17 08:12:05;;;;;;;10.02;2.63;;;13.50;99.90;;;;;;5032041;28;20065;-77
2023/05/17 08:14:32;;;;;;;13.07;2.53;;;13.70;99.90;;;;;;5043402;28;20567;-75
2023/05/17 08:16:57;;;;;;;8.20;2.20;;;13.90;99.90;;;;;;5023372;28;20408;-74
2023/05/17 08:19:23;;;;;;;9.73;2.20;;;14.00;99.90;;;;;;5039675;28;20053;-74
2023/05/17 08:21:56;;;;;;;9.00;2.13;;;14.10;99.90;;;;;;5025620;28;20048;-74
2023/05/17 08:24:22;;;;;;;6.25;1.95;;;14.40;99.90;;;;;;5039238;28;20495;-76
2023/05/17 08:26:47;;;;;;;9.63;2.30;;;14.50;99.90;;;;;;5013050;28;20049;-76
2023/05/17 08:29:13;;;;;;;10.52;2.03;;;14.60;99.90;;;;;;5030389;28;20061;-75
2023/05/17 08:31:39;;;;;;;10.90;2.13;;;14.80;99.90;;;;;;5032634;28;20532;-77
2023/05/17 08:34:04;;;;;;;7.88;1.77;;;14.90;99.90;;;;;;5044016;28;20048;-75
2023/05/17 08:36:30;;;;;;;12.27;2.50;;;14.90;99.90;;;;;;5027764;28;20040;-75
2023/05/17 08:38:56;;;;;;;10.70;2.55;;;15.00;99.90;;;;;;5023857;28;20041;-77
2023/05/17 08:41:22;;;;;;;7.57;1.80;;;14.90;99.90;;;;;;5025034;28;20053;-76
2023/05/17 08:43:49;;;;;;;10.15;1.90;;;15.00;99.90;;;;;;5032142;28;20104;-76
2023/05/17 08:46:21;;;;;;;8.20;2.00;;;15.10;99.90;;;;;;5029903;28;20049;-75
2023/05/17 08:48:50;;;;;;;10.90;2.20;;;15.70;99.90;;;;;;5023231;28;20107;-76
2023/05/17 08:51:18;;;;;;;8.48;1.90;;;16.00;99.20;;;;;;5036544;28;20056;-78
2023/05/17 08:53:46;;;;;;;12.18;2.08;;;16.20;98.60;;;;;;5035109;28;20646;-73
2023/05/17 08:56:16;;;;;;;12.20;2.20;;;16.30;98.20;;;;;;5020029;28;20061;-74
2023/05/17 08:58:42;;;;;;;8.88;2.05;;;16.50;97.20;;;;;;5034584;28;20049;-75
2023/05/17 09:01:08;;;;;;;8.73;2.13;;;16.40;97.60;;;;;;5033162;28;20055;-74
2023/05/17 09:03:39;;;;;;;11.50;2.35;;;16.60;97.50;;;;;;5034806;28;20049;-75
2023/05/17 09:06:05;;;;;;;7.85;1.90;;;16.90;97.20;;;;;;5038978;28;20557;-76
2023/05/17 09:08:31;;;;;;;12.90;3.08;;;17.00;96.70;;;;;;5030211;28;20041;-75
2023/05/17 09:11:00;;;;;;;13.57;2.55;;;17.10;96.50;;;;;;5023277;28;20148;-76
2023/05/17 09:13:26;;;;;;;6.68;2.13;;;17.20;96.40;;;;;;5026427;28;20570;-74
2023/05/17 09:15:53;;;;;;;11.45;2.28;;;17.40;96.30;;;;;;5033187;28;20048;-76
2023/05/17 09:18:28;;;;;;;8.52;1.85;;;17.20;96.00;;;;;;5041096;28;20069;-76
2023/05/17 09:20:53;;;;;;;7.10;1.90;;;17.20;95.80;;;;;;5024028;28;20041;-76
2023/05/17 09:23:21;;;;;;;8.70;2.05;;;17.00;95.40;;;;;;5023446;28;20060;-76
2023/05/17 09:25:50;;;;;;;7.50;2.10;;;16.80;95.00;;;;;;5014963;28;20488;-76
2023/05/17 09:28:19;;;;;;;9.50;1.98;;;16.70;94.00;;;;;;5023617;28;20056;-75
2023/05/17 09:30:48;;;;;;;8.40;1.95;;;16.50;95.00;;;;;;5040513;28;20060;-74
2023/05/17 09:33:15;;;;;;;9.35;2.42;;;16.40;95.10;;;;;;5057213;28;20050;-76
2023/05/17 09:35:42;;;;;;;8.65;2.22;;;16.30;95.10;;;;;;5028061;28;20041;-75
2023/05/17 09:38:12;;;;;;;8.65;2.03;;;16.40;95.20;;;;;;5027731;28;20519;-76
2023/05/17 09:40:39;;;;;;;7.65;1.80;;;16.50;94.90;;;;;;5025366;28;20045;-76
2023/05/17 09:43:05;;;;;;;8.32;1.90;;;16.60;94.50;;;;;;5031085;28;20092;-77
2023/05/17 09:45:35;;;;;;;9.68;2.17;;;16.70;94.30;;;;;;5025900;28;20536;-75
2023/05/17 09:48:15;;;;;;;10.10;2.15;;;16.80;93.80;;;;;;5030002;28;20119;-76
2023/05/17 09:50:49;;;;;;;7.00;2.17;;;17.00;93.50;;;;;;5015556;28;20049;-75
2023/05/17 09:53:41;;;;;;;6.38;1.50;;;17.30;93.40;;;;;;5039215;28;20137;-75
2023/05/17 09:56:09;;;;;;;10.10;1.70;;;17.50;91.90;;;;;;5027202;28;20096;-78
2023/05/17 09:58:38;;;;;;;6.60;1.50;;;17.70;93.20;;;;;;5033842;28;20364;-77
2023/05/17 10:01:09;;;;;;;8.02;1.83;;;17.80;91.70;;;;;;5019710;28;20045;-79
2023/05/17 10:03:36;;;;;;;7.97;1.90;;;17.30;91.40;;;;;;5032833;28;20492;-76
2023/05/17 10:06:07;;;;;;;6.78;1.60;;;17.00;91.50;;;;;;5030989;28;20049;-78
2023/05/17 10:08:35;;;;;;;6.85;1.85;;;17.00;91.40;;;;;;5021566;28;20037;-78
2023/05/17 10:11:10;;;;;;;8.10;1.90;;;17.00;91.80;;;;;;5031585;28;20053;-78
2023/05/17 10:13:59;;;;;;;7.38;1.92;;;17.10;91.50;;;;;;5037216;28;20705;-77
2023/05/17 10:16:25;;;;;;;4.65;1.63;;;17.30;91.90;;;;;;5036577;28;20052;-77
2023/05/17 10:18:52;;;;;;;9.23;2.17;;;17.70;92.10;;;;;;5013335;28;20046;-78
2023/05/17 10:21:19;;;;;;;7.00;1.80;;;17.80;91.80;;;;;;5018761;28;20055;-78
2023/05/17 10:23:46;;;;;;;5.22;1.67;;;17.90;91.30;;;;;;5028250;28;20076;-77
2023/05/17 10:26:14;;;;;;;5.20;1.40;;;17.80;91.20;;;;;;5022347;28;20053;-76
2023/05/17 10:28:41;;;;;;;7.07;2.20;;;18.00;91.10;;;;;;5030383;28;20388;-76
2023/05/17 10:31:07;;;;;;;5.78;1.55;;;18.20;90.70;;;;;;5038085;28;20053;-78
2023/05/17 10:33:33;;;;;;;9.25;2.20;;;18.50;90.20;;;;;;5002002;28;20099;-76
2023/05/17 10:36:02;;;;;;;8.32;1.85;;;18.60;89.90;;;;;;5039059;28;20499;-76
2023/05/17 10:38:27;;;;;;;6.05;1.77;;;19.00;88.90;;;;;;5014057;28;20049;-77
2023/05/17 10:40:55;;;;;;;5.75;1.70;;;19.00;88.80;;;;;;5021695;28;20180;-78
2023/05/17 10:43:22;;;;;;;8.32;2.20;;;19.00;88.20;;;;;;5031196;28;20514;-75
2023/05/17 10:45:48;;;;;;;8.10;1.85;;;18.80;87.50;;;;;;5029452;28;20054;-76
2023/05/17 10:48:15;;;;;;;7.90;1.88;;;18.70;87.70;;;;;;5033591;28;20056;-75
2023/05/17 10:50:45;;;;;;;7.45;1.95;;;18.50;88.20;;;;;;5021091;28;20502;-74
2023/05/17 10:53:11;;;;;;;7.97;1.98;;;18.10;87.60;;;;;;5029567;28;20044;-79
2023/05/17 10:55:40;;;;;;;12.25;2.28;;;17.90;88.50;;;;;;5030941;28;21348;-74
2023/05/17 10:58:18;;;;;;;8.30;1.85;;;17.70;88.30;;;;;;5031743;28;20491;-77
2023/05/17 11:00:47;;;;;;;8.10;2.00;;;17.70;87.80;;;;;;5032334;28;20403;-75
2023/05/17 11:03:18;;;;;;;8.25;2.13;;;17.90;89.20;;;;;;5022977;28;20041;-76
2023/05/17 11:06:05;;;;;;;10.45;2.30;;;18.10;88.90;;;;;;5024579;28;20119;-77
2023/05/17 11:08:32;;;;;;;9.32;2.00;;;18.30;88.60;;;;;;5009703;28;21098;-75
2023/05/17 11:11:12;;;;;;;8.15;2.17;;;18.20;88.20;;;;;;5037025;28;20072;-76
2023/05/17 11:13:45;;;;;;;8.75;2.10;;;18.20;87.00;;;;;;5032743;28;20202;-76
2023/05/17 11:16:17;;;;;;;9.27;2.28;;;18.20;87.40;;;;;;5027878;28;20053;-76
2023/05/17 11:18:48;;;;;;;6.22;2.08;;;18.10;88.60;;;;;;5025476;28;20045;-75
2023/05/17 11:21:15;;;;;;;10.77;2.53;;;17.90;88.80;;;;;;5036751;28;20396;-73
2023/05/17 11:23:43;;;;;;;8.02;2.00;;;17.80;89.70;;;;;;5014265;28;20056;-75
2023/05/17 11:26:27;;;;;;;12.18;2.20;;;17.50;89.30;;;;;;5031623;28;20098;-73
2023/05/17 11:29:09;;;;;;;9.43;2.22;;;17.20;89.10;;;;;;5014879;28;20064;-75
2023/05/17 11:31:41;;;;;;;9.75;2.17;;;16.90;91.10;;;;;;5013251;28;20126;-73
2023/05/17 11:34:07;;;;;;;7.60;2.13;;;16.70;91.90;;;;;;5026808;28;20456;-74
2023/05/17 11:36:51;;;;;;;11.07;2.10;;;16.70;92.50;;;;;;5010452;28;20048;-74
2023/05/17 11:39:22;;;;;;;5.95;2.05;;;16.70;92.80;;;;;;5034712;28;20075;-74
2023/05/17 11:41:52;;;;;;;7.13;1.88;;;16.80;92.90;;;;;;5036661;28;20387;-78
2023/05/17 11:44:30;;;;;;;6.50;1.90;;;17.10;92.80;;;;;;5012600;28;20067;-76
2023/05/17 11:47:01;;;;;;;9.93;2.25;;;17.40;92.40;;;;;;5017262;28;20200;-74
2023/05/17 11:49:29;;;;;;;9.32;2.20;;;17.70;92.40;;;;;;5016293;28;20072;-74
2023/05/17 11:51:55;;;;;;;11.70;2.30;;;17.70;92.20;;;;;;5030678;28;20050;-77
2023/05/17 11:54:24;;;;;;;6.22;1.75;;;17.70;92.00;;;;;;5036715;28;20443;-74
2023/05/17 11:56:53;;;;;;;9.48;2.00;;;17.60;91.60;;;;;;5033952;28;20563;-77
2023/05/17 11:59:22;;;;;;;11.55;2.03;;;17.40;91.50;;;;;;5031235;28;20057;-78
2023/05/17 12:01:49;;;;;;;9.20;2.00;;;17.30;92.00;;;;;;5022795;28;20051;-74
2023/05/17 12:04:25;;;;;;;6.75;1.67;;;17.10;92.00;;;;;;5025047;28;20046;-74
2023/05/17 12:06:54;;;;;;;8.82;1.80;;;17.30;92.00;;;;;;5027162;28;20044;-77
2023/05/17 12:09:22;;;;;;;9.15;1.88;;;17.20;91.70;;;;;;5027076;28;20069;-75
2023/05/17 12:11:48;;;;;;;5.97;1.80;;;17.10;91.80;;;;;;5009020;28;20159;-74
2023/05/17 12:14:17;;;;;;;8.02;1.75;;;17.20;91.70;;;;;;5017145;28;20790;-74
2023/05/17 12:16:46;;;;;;;9.90;2.30;;;17.70;91.60;;;;;;5000917;28;20045;-78
2023/05/17 12:19:23;;;;;;;8.73;1.85;;;17.80;91.00;;;;;;5013651;28;20052;-76
2023/05/17 12:21:49;;;;;;;6.50;1.90;;;17.80;90.10;;;;;;5025830;28;20049;-76
2023/05/17 12:24:16;;;;;;;5.93;1.52;;;18.30;90.50;;;;;;5032380;28;20041;-75
2023/05/17 12:26:43;;;;;;;6.72;1.40;;;18.80;89.90;;;;;;5016119;28;20122;-77
2023/05/17 12:29:10;;;;;;;7.88;1.70;;;19.20;87.60;;;;;;5026377;28;20087;-78
2023/05/17 12:31:40;;;;;;;8.18;1.80;;;19.70;87.20;;;;;;5026781;28;20091;-76
2023/05/17 12:34:11;;;;;;;9.02;1.92;;;19.70;85.30;;;;;;5036397;28;20072;-78
2023/05/17 12:36:37;;;;;;;6.40;1.30;;;19.90;85.70;;;;;;5034184;28;20664;-76
2023/05/17 12:39:07;;;;;;;9.23;2.08;;;20.00;85.40;;;;;;5028269;28;20065;-74
2023/05/17 12:41:34;;;;;;;14.52;2.25;;;20.00;84.40;;;;;;5013625;28;20049;-74
2023/05/17 12:44:02;;;;;;;7.72;1.95;;;19.60;84.00;;;;;;5034364;28;20041;-74
2023/05/17 12:46:28;;;;;;;5.45;1.70;;;19.20;84.00;;;;;;5009824;28;20041;-75
2023/05/17 12:48:54;;;;;;;8.52;1.92;;;18.80;84.40;;;;;;5027377;28;20064;-76
2023/05/17 12:51:22;;;;;;;10.25;1.88;;;18.80;84.80;;;;;;5018384;28;20102;-75